createdAt,value
2022-10-04T14:04:17.351Z,22.41
2022-10-04T14:05:17.599Z,22.72
2022-10-04T14:06:17.370Z,23.05
2022-10-04T14:07:17.301Z,23.19
2022-10-04T14:08:17.348Z,23.40
2022-10-04T14:09:17.283Z,23.17
2022-10-04T14:10:17.262Z,23.20
2022-10-04T14:11:17.258Z,23.19
2022-10-04T14:12:17.285Z,23.05
2022-10-04T14:13:17.226Z,23.01
2022-10-04T14:14:17.241Z,23.07
2022-10-04T14:15:17.193Z,23.20
2022-10-04T14:16:17.227Z,23.04
2022-10-04T14:17:17.220Z,23.09
2022-10-04T14:18:17.314Z,23.24
2022-10-04T14:19:17.141Z,23.12
2022-10-04T14:20:17.401Z,22.97
2022-10-04T14:21:19.627Z,23.17
2022-10-04T14:22:17.413Z,23.38
2022-10-04T14:23:17.146Z,23.40
2022-10-04T14:24:17.186Z,23.47
2022-10-04T14:25:21.129Z,23.46
2022-10-04T14:26:17.105Z,23.43
2022-10-04T14:27:17.998Z,23.27
2022-10-04T14:28:17.089Z,23.23
2022-10-04T14:29:17.035Z,23.24
2022-10-04T14:30:17.010Z,23.46
2022-10-04T14:31:17.051Z,23.12
2022-10-04T14:32:17.076Z,23.07
2022-10-04T14:33:16.961Z,22.56
2022-10-04T14:34:17.045Z,22.92
2022-10-04T14:35:16.953Z,22.89
2022-10-04T14:36:16.962Z,23.12
2022-10-04T14:37:16.922Z,23.40
2022-10-04T14:38:16.914Z,23.20
2022-10-04T14:39:16.903Z,22.32
2022-10-04T14:40:16.907Z,22.34
2022-10-04T14:41:16.919Z,22.53
2022-10-04T14:42:16.878Z,22.34
2022-10-04T14:43:16.841Z,22.34
2022-10-04T14:44:16.821Z,22.32
2022-10-04T14:45:16.814Z,22.46
2022-10-04T14:46:16.921Z,22.50
2022-10-04T14:47:16.800Z,22.80
2022-10-04T14:48:16.763Z,22.80
2022-10-04T14:49:16.758Z,22.52
2022-10-04T14:50:16.762Z,22.25
2022-10-04T14:51:16.816Z,22.54
2022-10-04T14:52:16.765Z,22.97
2022-10-04T14:53:16.699Z,22.86
2022-10-04T14:54:16.721Z,22.56
2022-10-04T14:55:16.747Z,22.43
2022-10-04T14:56:16.687Z,22.34
2022-10-04T14:57:16.742Z,22.62
2022-10-04T14:58:16.704Z,22.78
2022-10-04T14:59:16.665Z,22.53
2022-10-04T15:00:16.689Z,22.74
2022-10-04T15:01:16.728Z,23.22
2022-10-04T15:02:16.694Z,23.60
2022-10-04T15:03:16.692Z,23.58
2022-10-04T15:04:16.662Z,23.17
2022-10-04T15:05:16.598Z,22.57
2022-10-04T15:06:16.808Z,22.09
2022-10-04T15:07:16.609Z,22.23
2022-10-04T15:08:17.248Z,22.56
2022-10-04T15:09:18.415Z,22.65
2022-10-04T15:10:16.968Z,22.90
2022-10-04T15:11:16.695Z,22.96
2022-10-04T15:12:36.463Z,22.90
2022-10-04T15:13:17.444Z,22.75
2022-10-04T15:14:16.585Z,22.97
2022-10-04T15:15:16.830Z,23.32
2022-10-04T15:16:16.504Z,23.47
2022-10-04T15:17:16.469Z,23.24
2022-10-04T15:18:16.418Z,23.49
2022-10-04T15:19:16.446Z,23.53
2022-10-04T15:20:16.367Z,23.50
2022-10-04T15:21:16.350Z,23.60
2022-10-04T15:22:16.407Z,23.53
2022-10-04T15:23:16.368Z,23.49
2022-10-04T15:24:16.345Z,23.57
2022-10-04T15:25:16.328Z,23.09
2022-10-04T15:26:16.278Z,22.64
2022-10-04T15:27:16.480Z,22.14
2022-10-04T15:28:16.330Z,21.20
2022-10-04T15:29:16.319Z,20.80
2022-10-04T15:30:16.244Z,20.74
2022-10-04T15:31:16.666Z,20.71
2022-10-04T15:32:16.211Z,20.68
2022-10-04T15:33:16.204Z,20.61
2022-10-04T15:34:16.227Z,20.71
2022-10-04T15:35:16.219Z,20.65
2022-10-04T15:36:16.180Z,20.64
2022-10-04T15:37:16.165Z,20.35
2022-10-04T15:38:16.128Z,20.24
2022-10-04T15:39:16.122Z,20.21
2022-10-04T15:40:16.109Z,19.87
2022-10-04T15:41:20.143Z,19.84
2022-10-04T15:42:16.077Z,19.90
2022-10-04T15:43:16.065Z,19.94
2022-10-04T15:44:20.353Z,19.83
2022-10-04T15:45:16.066Z,19.60
2022-10-04T15:46:16.091Z,19.29
2022-10-04T15:47:16.016Z,19.38
2022-10-04T15:48:15.997Z,19.38
2022-10-04T15:49:15.992Z,19.36
2022-10-04T15:50:15.989Z,19.35
2022-10-04T15:51:16.012Z,19.36
2022-10-04T15:52:16.007Z,19.21
2022-10-04T15:53:20.103Z,19.06
2022-10-04T15:54:15.964Z,19.15
2022-10-04T15:55:15.945Z,19.20
2022-10-04T15:56:15.951Z,19.20
2022-10-04T15:57:15.872Z,19.08
2022-10-04T15:58:17.583Z,18.97
2022-10-04T15:59:15.877Z,18.84
2022-10-04T16:00:15.864Z,18.87
2022-10-04T16:01:15.897Z,18.87
2022-10-04T16:02:17.699Z,18.98
2022-10-04T16:03:15.848Z,18.91
2022-10-04T16:04:16.586Z,18.80
2022-10-04T16:05:15.854Z,18.83
2022-10-04T16:06:15.881Z,18.90
2022-10-04T16:07:16.101Z,18.90
2022-10-04T16:08:15.746Z,18.90
2022-10-04T16:09:16.000Z,18.91
2022-10-04T16:10:15.713Z,18.99
2022-10-04T16:11:15.716Z,19.01
2022-10-04T16:12:20.173Z,19.10
2022-10-04T16:13:15.769Z,19.14
2022-10-04T16:14:15.833Z,19.08
2022-10-04T16:15:15.652Z,18.86
2022-10-04T16:16:15.942Z,18.83
2022-10-04T16:17:15.981Z,18.84
2022-10-04T16:18:15.725Z,18.86
2022-10-04T16:19:15.625Z,18.87
2022-10-04T16:20:15.600Z,18.77
2022-10-04T16:21:15.583Z,18.49
2022-10-04T16:22:15.700Z,18.47
2022-10-04T16:23:15.537Z,18.54
2022-10-04T16:24:15.530Z,18.61
2022-10-04T16:25:15.527Z,18.62
2022-10-04T16:26:15.565Z,18.67
2022-10-04T16:27:15.516Z,18.64
2022-10-04T16:28:15.550Z,18.64
2022-10-04T16:29:15.503Z,18.58
2022-10-04T16:30:26.557Z,18.58
2022-10-04T16:31:20.092Z,18.58
2022-10-04T16:32:15.450Z,18.50
2022-10-04T16:33:15.428Z,18.44
2022-10-04T16:34:15.438Z,18.36
2022-10-04T16:35:16.200Z,18.37
2022-10-04T16:36:15.432Z,18.34
2022-10-04T16:37:15.434Z,18.10
2022-10-04T16:38:15.385Z,18.03
2022-10-04T16:39:15.342Z,18.06
2022-10-04T16:40:16.030Z,18.03
2022-10-04T16:41:15.411Z,18.09
2022-10-04T16:42:15.651Z,18.12
2022-10-04T16:43:15.317Z,18.09
2022-10-04T16:44:15.291Z,18.06
2022-10-04T16:45:15.268Z,18.04
2022-10-04T16:46:15.379Z,18.09
2022-10-04T16:47:15.261Z,18.07
2022-10-04T16:48:15.256Z,17.94
2022-10-04T16:49:18.122Z,17.89
2022-10-04T16:50:15.580Z,17.91
2022-10-04T16:51:16.231Z,17.91
2022-10-04T16:52:17.014Z,17.78
2022-10-04T16:53:17.398Z,17.71
2022-10-04T16:54:15.136Z,17.73
2022-10-04T16:55:15.444Z,17.71
2022-10-04T16:56:15.155Z,17.74
2022-10-04T20:25:36.851Z,14.57
2022-10-04T20:26:36.565Z,14.57
2022-10-04T20:27:36.561Z,14.56
2022-10-04T20:28:36.984Z,14.62
2022-10-04T20:29:36.532Z,14.56
2022-10-04T20:30:36.501Z,14.57
2022-10-04T20:31:36.608Z,14.64
2022-10-04T20:32:36.464Z,14.62
2022-10-04T20:33:36.495Z,14.56
2022-10-04T20:34:36.445Z,14.56
2022-10-04T20:35:36.431Z,14.54
2022-10-04T20:36:36.475Z,14.54
2022-10-04T20:37:36.445Z,14.54
2022-10-04T20:38:36.426Z,14.56
2022-10-04T20:39:36.378Z,14.57
2022-10-04T20:40:36.397Z,14.60
2022-10-04T20:41:36.322Z,14.64
2022-10-04T20:42:36.385Z,14.62
2022-10-04T20:43:36.358Z,14.61
2022-10-04T20:44:36.568Z,14.62
2022-10-04T20:45:36.401Z,14.64
2022-10-04T20:46:36.297Z,14.64
2022-10-04T20:47:36.260Z,14.65
2022-10-04T20:48:36.289Z,14.68
2022-10-04T20:49:36.550Z,14.67
2022-10-04T20:50:36.208Z,14.68
2022-10-04T20:51:36.468Z,14.69
2022-10-04T20:53:08.561Z,14.69
2022-10-04T20:54:08.257Z,14.74
2022-10-04T20:55:08.315Z,14.74
2022-10-04T20:56:08.248Z,14.71
2022-10-04T20:57:08.227Z,14.71
2022-10-04T20:58:08.209Z,14.68
2022-10-04T20:59:08.215Z,14.67
2022-10-04T21:00:08.466Z,14.54
2022-10-04T21:01:08.183Z,14.53
2022-10-04T21:02:08.232Z,14.49
2022-10-04T21:03:08.133Z,14.49
2022-10-04T21:04:08.099Z,14.49
2022-10-04T21:05:08.099Z,14.53
2022-10-04T21:06:08.084Z,14.54
